aviador You're here:

ZBYN Decoded Metar

TAIYUAN in CHINA
Report Time2017-08-24 00:30:00
UTC Time2017-08-24 01:06:02
Flight Rules vfr VFR
Wind350° at 4 kt
W.Decomp.*RWY 31: 2.9 kt HW 2.8 kt RCW
W.Rank350° ranks 11
Current wind is below 350° avg. (6.9)
Visibility9999 m
Phenomena:N/A
Clouds:N/A
Expected CloudBase > 3,600 ft AGL from Temp-Dew spread
CeilingNone
Temp24°C (ISA +14)
Dew Point15°C (57% RH)
QNH1016 hPa
Density Alt4,314 ft
Elevation2,556 ft
Report Wrong Elevation
Raw Report
ZBYN 240030Z 35002MPS 310V040 CAVOK 24/15 Q1016 NOSIG=

Extra information for ZBYN:More info

Metar Taf Metar & Taf Last 4 Metars F.Rules Stats Wind Profile Meteogram Temp Stats Airport Information Weather charts Add Link Nearby VenuesMetar ALERT Operation Metar Decoded Social comments